createdAt,value
2022-08-28T00:03:17.670Z,18.21
2022-08-28T00:08:21.143Z,18.10
2022-08-28T00:13:26.021Z,18.10
2022-08-28T00:18:31.396Z,18.13
2022-08-28T00:23:42.970Z,18.14
2022-08-28T00:28:46.000Z,18.12
2022-08-28T00:33:50.830Z,18.11
2022-08-28T00:38:53.563Z,18.10
2022-08-28T00:44:08.405Z,18.12
2022-08-28T00:49:14.591Z,18.13
2022-08-28T00:54:19.143Z,18.11
2022-08-28T00:59:25.501Z,18.05
2022-08-28T01:04:32.314Z,18.06
2022-08-28T01:09:39.527Z,18.06
2022-08-28T01:14:45.708Z,18.03
2022-08-28T01:19:57.072Z,17.99
2022-08-28T01:25:03.414Z,17.96
2022-08-28T01:30:06.933Z,17.95
2022-08-28T01:35:14.728Z,17.93
2022-08-28T01:40:23.880Z,17.93
2022-08-28T01:45:27.148Z,17.88
2022-08-28T01:50:33.498Z,17.80
2022-08-28T01:55:37.921Z,17.78
2022-08-28T02:00:41.219Z,17.72
2022-08-28T02:05:45.980Z,17.74
2022-08-28T02:10:50.198Z,17.68
2022-08-28T02:15:52.965Z,17.75
2022-08-28T02:20:55.855Z,17.73
2022-08-28T02:26:00.087Z,17.75
2022-08-28T02:31:02.979Z,17.76
2022-08-28T02:36:06.263Z,17.78
2022-08-28T02:41:10.746Z,17.76
2022-08-28T02:46:14.144Z,17.77
2022-08-28T02:51:16.949Z,17.78
2022-08-28T02:56:21.060Z,17.79
2022-08-28T03:01:23.933Z,17.81
2022-08-28T03:06:26.707Z,17.80
2022-08-28T03:11:30.786Z,17.84
2022-08-28T03:16:34.168Z,17.81
2022-08-28T03:21:37.014Z,17.80
2022-08-28T03:26:41.162Z,17.84
2022-08-28T03:31:43.961Z,17.82
2022-08-28T03:36:46.711Z,17.82
2022-08-28T03:41:51.439Z,17.82
2022-08-28T03:46:54.244Z,17.80
2022-08-28T03:51:56.975Z,17.77
2022-08-28T03:57:01.139Z,17.76
2022-08-28T04:02:03.926Z,17.76
2022-08-28T04:07:07.021Z,17.76
2022-08-28T04:12:11.681Z,17.74
2022-08-28T04:17:14.543Z,17.68
2022-08-28T04:22:17.443Z,17.65
2022-08-28T04:27:22.560Z,17.62
2022-08-28T04:32:25.366Z,17.59
2022-08-28T04:37:28.133Z,17.58
2022-08-28T04:42:32.406Z,17.55
2022-08-28T04:47:36.834Z,17.52
2022-08-28T04:52:39.890Z,17.48
2022-08-28T04:57:44.014Z,17.46
2022-08-28T05:02:46.745Z,17.47
2022-08-28T05:07:49.530Z,17.52
2022-08-28T05:12:53.639Z,17.54
2022-08-28T05:17:56.394Z,17.55
2022-08-28T05:22:59.111Z,17.54
2022-08-28T05:28:03.592Z,17.61
2022-08-28T05:33:06.824Z,17.72
2022-08-28T05:38:10.334Z,17.82
2022-08-28T05:43:16.377Z,17.88
2022-08-28T05:48:19.334Z,18.05
2022-08-28T05:53:22.086Z,18.15
2022-08-28T05:58:33.439Z,18.27
2022-08-28T06:03:37.422Z,18.48
2022-08-28T06:08:58.769Z,18.67
2022-08-28T06:14:06.463Z,18.90
2022-08-28T06:19:10.379Z,19.04
2022-08-28T06:24:13.410Z,19.00
2022-08-28T06:29:18.379Z,19.20
2022-08-28T06:34:24.387Z,19.30
2022-08-28T06:39:27.263Z,19.52
2022-08-28T06:44:32.249Z,19.58
2022-08-28T06:49:35.622Z,19.62
2022-08-28T06:54:38.349Z,19.76
2022-08-28T06:59:44.719Z,19.75
2022-08-28T07:04:47.424Z,20.17
2022-08-28T07:09:50.320Z,20.18
2022-08-28T07:14:54.439Z,20.20
2022-08-28T07:19:57.307Z,20.22
2022-08-28T07:25:00.219Z,20.30
2022-08-28T07:30:06.319Z,20.74
2022-08-28T07:35:10.641Z,20.92
2022-08-28T07:40:13.986Z,21.34
2022-08-28T07:45:18.347Z,21.61
2022-08-28T07:50:21.302Z,21.89
2022-08-28T07:55:24.133Z,22.12
2022-08-28T08:00:28.211Z,22.24
2022-08-28T08:05:30.887Z,22.48
2022-08-28T08:10:34.211Z,22.02
2022-08-28T08:15:38.527Z,22.02
2022-08-28T08:20:41.281Z,21.86
2022-08-28T08:25:44.004Z,21.38
2022-08-28T08:30:48.140Z,22.05
2022-08-28T08:35:51.078Z,22.70
2022-08-28T08:40:53.987Z,23.42
2022-08-28T08:45:58.474Z,23.68
2022-08-28T08:51:06.277Z,24.49
2022-08-28T08:56:13.176Z,24.69
2022-08-28T09:01:22.857Z,25.08
2022-08-28T09:06:32.152Z,24.80
2022-08-28T09:11:51.029Z,25.13
2022-08-28T09:17:01.946Z,25.11
2022-08-28T09:22:05.055Z,24.80
2022-08-28T09:27:15.611Z,25.20
2022-08-28T09:32:25.389Z,25.54
2022-08-28T09:37:32.077Z,25.39
2022-08-28T09:42:52.237Z,25.29
2022-08-28T09:47:58.204Z,25.30
2022-08-28T09:53:16.551Z,25.42
2022-08-28T09:58:19.932Z,25.72
2022-08-28T10:03:29.287Z,25.70
2022-08-28T10:08:50.982Z,25.96
2022-08-28T10:14:03.575Z,25.80
2022-08-28T10:19:16.227Z,25.65
2022-08-28T10:24:33.245Z,25.81
2022-08-28T10:29:49.549Z,25.95
2022-08-28T10:35:04.297Z,26.05
2022-08-28T10:40:14.627Z,26.26
2022-08-28T10:45:21.823Z,26.74
2022-08-28T10:50:29.953Z,26.34
2022-08-28T10:55:38.806Z,26.44
2022-08-28T11:00:44.120Z,26.97
2022-08-28T11:05:54.321Z,26.23
2022-08-28T11:10:58.687Z,26.71
2022-08-28T11:16:11.733Z,27.30
2022-08-28T11:21:22.493Z,27.01
2022-08-28T11:26:33.905Z,27.70
2022-08-28T11:31:41.617Z,27.66
2022-08-28T11:37:01.290Z,28.22
2022-08-28T11:42:38.168Z,28.87
2022-08-28T11:47:58.888Z,28.19
2022-08-28T11:53:31.512Z,30.13
2022-08-28T11:58:43.953Z,30.64
2022-08-28T12:03:57.102Z,31.45
2022-08-28T12:09:05.525Z,31.89
2022-08-28T12:14:09.731Z,32.36
2022-08-28T12:19:28.747Z,32.61
2022-08-28T12:24:36.568Z,33.50
2022-08-28T12:29:47.129Z,32.23
2022-08-28T12:35:04.371Z,34.87
2022-08-28T12:40:16.655Z,35.50
2022-08-28T12:45:24.514Z,35.06
2022-08-28T12:50:32.185Z,33.99
2022-08-28T12:55:38.492Z,35.58
2022-08-28T13:00:53.476Z,35.93
2022-08-28T13:06:00.153Z,36.73
2022-08-28T13:11:04.570Z,37.39
2022-08-28T13:16:09.467Z,36.96
2022-08-28T13:21:33.993Z,36.18
2022-08-28T13:26:38.944Z,36.76
2022-08-28T13:31:42.587Z,38.05
2022-08-28T13:36:48.332Z,38.64
2022-08-28T13:41:55.885Z,37.76
2022-08-28T13:47:00.680Z,35.58
2022-08-28T13:52:06.710Z,33.35
2022-08-28T13:57:11.285Z,32.65
2022-08-28T14:02:33.269Z,31.61
2022-08-28T14:07:36.902Z,30.99
2022-08-28T14:12:43.091Z,29.95
2022-08-28T14:17:46.086Z,29.89
2022-08-28T14:22:48.818Z,29.61
2022-08-28T14:27:53.133Z,29.20
2022-08-28T14:32:55.835Z,29.44
2022-08-28T14:37:58.534Z,29.52
2022-08-28T14:43:02.647Z,29.80
2022-08-28T14:48:05.419Z,29.48
2022-08-28T14:53:09.685Z,29.45
2022-08-28T14:58:14.114Z,29.59
2022-08-28T15:03:18.459Z,29.77
2022-08-28T15:08:21.160Z,30.32
2022-08-28T15:13:25.833Z,31.39
2022-08-28T15:18:34.354Z,34.32
2022-08-28T15:23:37.031Z,39.01
2022-08-28T15:28:42.021Z,41.74
2022-08-28T15:33:45.553Z,43.05
2022-08-28T15:39:06.152Z,43.82
2022-08-28T15:44:14.876Z,43.40
2022-08-28T15:49:19.631Z,44.71
2022-08-28T15:54:23.731Z,41.21
2022-08-28T15:59:47.878Z,36.24
2022-08-28T16:04:51.412Z,36.63
2022-08-28T16:09:54.465Z,38.02
2022-08-28T16:14:58.652Z,35.46
2022-08-28T16:20:01.466Z,34.88
2022-08-28T16:25:04.543Z,35.30
2022-08-28T16:30:15.688Z,32.54
2022-08-28T16:35:19.086Z,31.71
2022-08-28T16:40:22.042Z,31.54
2022-08-28T16:45:26.500Z,30.73
2022-08-28T16:50:32.287Z,31.66
2022-08-28T16:55:35.577Z,29.57
2022-08-28T17:00:44.527Z,29.24
2022-08-28T17:05:57.553Z,30.52
2022-08-28T17:11:01.326Z,28.79
2022-08-28T17:16:05.931Z,28.01
2022-08-28T17:21:26.634Z,26.84
2022-08-28T17:26:29.410Z,26.23
2022-08-28T17:31:33.657Z,25.72
2022-08-28T17:36:37.785Z,25.14
2022-08-28T17:41:40.729Z,24.81
2022-08-28T17:46:44.976Z,24.47
2022-08-28T17:51:47.790Z,24.07
2022-08-28T17:56:51.446Z,23.78
2022-08-28T18:01:55.840Z,23.52
2022-08-28T18:06:58.866Z,23.24
2022-08-28T18:12:02.012Z,23.03
2022-08-28T18:17:06.221Z,22.77
2022-08-28T18:22:13.481Z,22.54
2022-08-28T18:27:16.396Z,22.33
2022-08-28T18:32:20.821Z,22.04
2022-08-28T18:37:23.545Z,21.84
2022-08-28T18:42:26.459Z,21.68
2022-08-28T18:47:30.575Z,21.49
2022-08-28T18:52:33.589Z,21.37
2022-08-28T18:57:36.345Z,21.12
2022-08-28T19:02:41.806Z,21.03
2022-08-28T19:07:45.753Z,20.88
2022-08-28T19:12:48.559Z,20.76
2022-08-28T19:17:54.639Z,20.59
2022-08-28T19:22:58.338Z,20.44
2022-08-28T19:28:02.397Z,20.30
2022-08-28T19:33:06.770Z,20.16
2022-08-28T19:38:09.993Z,20.00
2022-08-28T19:43:16.601Z,19.85
2022-08-28T19:48:21.415Z,19.75
2022-08-28T19:53:24.179Z,19.68
2022-08-28T19:58:27.334Z,19.62
2022-08-28T20:03:31.760Z,19.53
2022-08-28T20:08:36.179Z,19.43
2022-08-28T20:13:39.986Z,19.31
2022-08-28T20:18:44.455Z,19.25
2022-08-28T20:23:47.842Z,19.02
2022-08-28T20:28:52.545Z,18.88
2022-08-28T20:33:56.683Z,18.72
2022-08-28T20:38:59.992Z,18.62
2022-08-28T20:44:04.960Z,18.43
2022-08-28T20:49:09.292Z,18.13
2022-08-28T20:54:12.709Z,18.01
2022-08-28T20:59:15.590Z,17.91
2022-08-28T21:04:19.979Z,17.81
2022-08-28T21:09:23.541Z,17.63
2022-08-28T21:14:51.411Z,17.47
2022-08-28T21:19:55.950Z,17.46
2022-08-28T21:24:59.147Z,17.23
2022-08-28T21:30:02.659Z,17.15
2022-08-28T21:35:09.256Z,17.03
2022-08-28T21:40:15.426Z,16.76
2022-08-28T21:45:18.329Z,16.80
2022-08-28T21:50:22.422Z,16.60
2022-08-28T21:55:25.287Z,16.48
2022-08-28T22:00:28.119Z,16.34
2022-08-28T22:05:32.333Z,16.27
2022-08-28T22:10:38.602Z,16.19
2022-08-28T22:15:46.037Z,16.08
2022-08-28T22:21:07.909Z,15.96
2022-08-28T22:26:13.395Z,15.86
2022-08-28T22:31:16.255Z,15.65
2022-08-28T22:36:22.703Z,15.60
2022-08-28T22:41:25.642Z,15.50
2022-08-28T22:46:29.176Z,15.29
2022-08-28T22:51:34.724Z,15.30
2022-08-28T22:56:37.527Z,15.24
2022-08-28T23:01:42.346Z,15.11
2022-08-28T23:06:46.439Z,15.02
2022-08-28T23:11:49.427Z,14.90
2022-08-28T23:16:54.869Z,14.73
2022-08-28T23:21:59.747Z,14.59
2022-08-28T23:27:19.419Z,14.50
2022-08-28T23:32:25.471Z,14.48
2022-08-28T23:37:29.588Z,14.45
2022-08-28T23:42:34.096Z,14.34
2022-08-28T23:47:40.356Z,14.27
2022-08-28T23:52:46.672Z,14.14
2022-08-28T23:57:52.162Z,14.06
